To NAV CANADA Home Page Login to a new session Search on AWWS site Feedback and Comments Disclaimer Vers la page française équivalente Tips FAQ What's new on the site To the Forecasts and Observations / NOTAM section To "File a Flight Plan" website Publications and other links Update of the User's profile FIC Telephone Numbers My Weather Data Folder Route Weather Data Regional Weather Data Local Weather Data To the Forecasts and Observations / NOTAM section
Request Generated 06/26/2017 at 22:27:03 UTC . Weather information available at that time is displayed.

METAR/TAF

If you find any discrepancies between the coded METAR/TAF and the plain language METAR/TAF please use the coded METAR/TAF. LWIS bulletins are not decoded in plain language.

TORONTO/LESTER B. PEARSON INTL/ON    

METAR CYYZ 262200Z 09006KT 15SM FEW045 FEW100 17/12 A2991 RMK CU1AC1 AC TR LN CB TOPS DIST E-S SLP131 DENSITY ALT 1000FT=
METAR
LOCATION
CYYZ - TORONTO/LESTER B. PEARSON INTL/ON
DATE - TIME
26 JUNE 2017 - 2200 UTC
WIND
90 TRUE @ 6  KNOTS
VISIBILITY
15 STAT.  MILES
RUNWAY VISUAL RANGE
WEATHER
CLOUDINESS
FEW CLOUDS (1/8 - 2/8) 4500  FT
FEW CLOUDS (1/8 - 2/8) 10000  FT
TEMP / DEWPOINT
17 C / 12 C
ALTIMETER
29.91 IN HG
RECENT WEATHER
WIND SHEAR

METAR CYYZ 262100Z 06007KT 15SM SCT045 BKN260 17/13 A2994 RMK CU3CI3 SLP140 DENSITY ALT 1000FT=
METAR
LOCATION
CYYZ - TORONTO/LESTER B. PEARSON INTL/ON
DATE - TIME
26 JUNE 2017 - 2100 UTC
WIND
60 TRUE @ 7  KNOTS
VISIBILITY
15 STAT.  MILES
RUNWAY VISUAL RANGE
WEATHER
CLOUDINESS
SCATTERED CLOUDS (3/8 - 4/8) 4500  FT
BROKEN CLOUDS (5/8 - 7/8) 26000  FT
TEMP / DEWPOINT
17 C / 13 C
ALTIMETER
29.94 IN HG
RECENT WEATHER
WIND SHEAR

SPECI CYYZ 262027Z 05007KT 15SM FEW030 SCT055 BKN100 16/13 A2994 RMK CU1SC3AC3 SLP140 DENSITY ALT 800FT=
SPECI
LOCATION
CYYZ - TORONTO/LESTER B. PEARSON INTL/ON
DATE - TIME
26 JUNE 2017 - 2027 UTC
WIND
50 TRUE @ 7  KNOTS
VISIBILITY
15 STAT.  MILES
RUNWAY VISUAL RANGE
WEATHER
CLOUDINESS
FEW CLOUDS (1/8 - 2/8) 3000  FT
SCATTERED CLOUDS (3/8 - 4/8) 5500  FT
BROKEN CLOUDS (5/8 - 7/8) 10000  FT
TEMP / DEWPOINT
16 C / 13 C
ALTIMETER
29.94 IN HG
RECENT WEATHER
WIND SHEAR

METAR CYYZ 262000Z 03009KT 330V040 15SM -SHRA FEW025 BKN045 BKN075 16/12 A2993 RMK SF1CU5AC1 SLP139 DENSITY ALT 800FT=
METAR
LOCATION
CYYZ - TORONTO/LESTER B. PEARSON INTL/ON
DATE - TIME
26 JUNE 2017 - 2000 UTC
WIND
30 TRUE @ 9  KNOTS
VARIATION
330 <-> 40  DEG
VISIBILITY
15 STAT.  MILES
RUNWAY VISUAL RANGE
WEATHER
LIGHT RAIN SHOWER
CLOUDINESS
FEW CLOUDS (1/8 - 2/8) 2500  FT
BROKEN CLOUDS (5/8 - 7/8) 4500  FT
BROKEN CLOUDS (5/8 - 7/8) 7500  FT
TEMP / DEWPOINT
16 C / 12 C
ALTIMETER
29.93 IN HG
RECENT WEATHER
WIND SHEAR

TAF AMD CYYZ 262137Z 2621/2724 06007KT P6SM SCT040 BKN260 FM262200 28007G17KT P6SM SCT050 TEMPO 2622/2623 BKN090 FM262300 26015G29KT P6SM BKN090 TEMPO 2623/2701 P6SM -SHRA BKN050 PROB30 2623/2701 VRB20G30KT 4SM +TSRA BR BKN040CB FM270100 26007KT P6SM FEW040 SCT080 FM271500 29015KT P6SM -SHRA BKN030 PROB30 2715/2718 VRB15G30KT 4SM TSRA BKN025CB FM271800 31010G20KT P6SM -SHRA BKN050 PROB30 2718/2721 VRB15G25KT 21/2SM +TSRA BR BKN025CB FM272100 30015G25KT P6SM FEW040 RMK NXT FCST BY 270000Z=
AMENDED TAF
LOCATION

CYYZ - TORONTO/LESTER B. PEARSON INTL/ON
VALIDITY [UTC]
26 JUN - 2137 to
28 JUN - 0000
 
TIMES
[UTC]
WIND
[DEGREES TRUE]
VISIBILITY
[STAT. MILES]
WEATHER
CLOUDINESS
[FEET AGL]
 
26 JUN - 2100 to
26 JUN - 2200
60 @ 7 KNOTS
6+
NIL
4000 SCATTERED
26000 BROKEN
 
26 JUN - 2200 to
26 JUN - 2300
280 @ 7 KNOTS
GUSTS 17 KNOTS
6+
NIL
5000 SCATTERED
TEMPORARY CHANGES
26 JUN - 2200 to
26 JUN - 2300
 
 
 
9000 BROKEN
 
26 JUN - 2300 to
27 JUN - 0100
260 @ 15 KNOTS
GUSTS 29 KNOTS
6+
NIL
9000 BROKEN
TEMPORARY CHANGES
26 JUN - 2300 to
27 JUN - 0100
 
6+
LIGHT RAIN SHOWER
5000 BROKEN
30% PROBABILITY
26 JUN - 2300 to
27 JUN - 0100
VARIABLE @ 20 KNOTS
GUSTS 30 KNOTS
4
HEAVY THUNDERSTORM WITH RAIN
MIST
4000 BROKEN WITH CUMULONIMBUS
 
27 JUN - 0100 to
27 JUN - 1500
260 @ 7 KNOTS
6+
NIL
4000 FEW
8000 SCATTERED
 
27 JUN - 1500 to
27 JUN - 1800
290 @ 15 KNOTS
6+
LIGHT RAIN SHOWER
3000 BROKEN
30% PROBABILITY
27 JUN - 1500 to
27 JUN - 1800
VARIABLE @ 15 KNOTS
GUSTS 30 KNOTS
4
MODERATE THUNDERSTORM WITH RAIN
2500 BROKEN WITH CUMULONIMBUS
 
27 JUN - 1800 to
27 JUN - 2100
310 @ 10 KNOTS
GUSTS 20 KNOTS
6+
LIGHT RAIN SHOWER
5000 BROKEN
30% PROBABILITY
27 JUN - 1800 to
27 JUN - 2100
VARIABLE @ 15 KNOTS
GUSTS 25 KNOTS
2 1/2
HEAVY THUNDERSTORM WITH RAIN
MIST
2500 BROKEN WITH CUMULONIMBUS
 
27 JUN - 2100 to
28 JUN - 0000
300 @ 15 KNOTS
GUSTS 25 KNOTS
6+
NIL
4000 FEW
REMARKS
THE NEXT FORECAST WILL BE ISSUED BY 0000 UTC ON DAY 27


Your time UTC time
Weather data provided by Environment Canada and NAV CANADA